Santa Rosa, CA

10:55 PM PST on February 11, 2016 (GMT -0800)
APRSWXNET | | Change Station
CLOSE
Current Station
Personal Weather Station
Location: Santa Rosa, CA
Elevation: 97 ft
Nearby Weather Stations

Elev 97 ft 38.44 °N, 122.77 °W | Updated 21 days ago

Mostly Cloudy
Mostly Cloudy
51 °F
Feels Like 51 °F
N
1
Wind Variable Wind from West
Gusts mph

Today
High -- | Low -- °F
--% Chance of Precip.
Yesterday
High -- | Low -- °F
Precip. -- in
Pressure 30.15 in
Visibility 8.0 miles
Clouds Clear
Dew Point 49 °F
Humidity 95%
Rainfall in
Snow Depth Not available.
7:06 AM 5:44 PM
Waxing Crescent, 18% visible
METAR KSTS 120553Z AUTO 15003KT 8SM CLR 12/09 A3017 RMK AO2 SLP209 T01220094 10222 20117 51012
Pressure 30.15 in
Visibility 8.0 miles
Clouds Clear
Dew Point 49 °F
Humidity 95%
Rainfall in
Snow Depth Not available.
7:06 AM 5:44 PM
Waxing Crescent, 18% visible
METAR KSTS 120553Z AUTO 15003KT 8SM CLR 12/09 A3017 RMK AO2 SLP209 T01220094 10222 20117 51012

10-Day Weather Forecast

Almanac

Astronomy

Feb. 11, 2016 Rise Set
Actual Time
Civil Twilight
Nautical Twilight
Astronomical Twilight
Moon
Length of Visible Light
Length of Day
Tomorrow will be .
, % of the Moon is Illuminated

Today's Extremes

State Highs State Lows

Community

WunderPhotos

Upload Photos

1,892,276 photos uploaded!

WunderBlog® & News

Nearby

Air Quality

  Air Quality AQ Index Pollutant
Not available.

Snow Depth

Station Depth Elevation

Earthquake Activity

City Distance Mag. Time & Date
Minimum magnitude displayed is 2.5.

Coastal Water Temperatures

Place Temperature

Stations

Nearby Weather Stations

Station Location Temp. Windchill Dew Point Humidity Wind Precip. Elev Updated Type
                   

Watches & Warnings

There are currently no watches in effect.